Time;durP1;ratioP1;P1;durP2;ratioP2;P2;SDS_P1;SDS_P2;PMS_P1;PMS_P2;Temp;Humidity;BMP_temperature;BMP_pressure;BME280_temperature;BME280_humidity;BME280_pressure;Samples;Min_cycle;Max_cycle;Signal;HPM_P1;HPM_P2
2023/05/21 00:01:15;;;;;;;2.28;2.08;;;;;;;;;;5051050;28;20616;-58
2023/05/21 00:03:44;;;;;;;3.63;2.22;;;;;;;;;;5051221;28;20060;-60
2023/05/21 00:06:14;;;;;;;4.85;2.60;;;;;;;;;;5064763;28;20059;-60
2023/05/21 00:08:41;;;;;;;6.70;2.42;;;;;;;;;;5048662;28;20053;-60
2023/05/21 00:11:08;;;;;;;3.42;2.30;;;;;;;;;;5051494;28;20147;-61
2023/05/21 00:13:34;;;;;;;1.90;1.70;;;;;;;;;;5063654;28;20057;-60
2023/05/21 00:16:01;;;;;;;2.08;1.85;;;;;;;;;;5055182;28;20569;-60
2023/05/21 00:18:27;;;;;;;3.08;2.10;;;;;;;;;;5063807;28;20049;-58
2023/05/21 00:20:54;;;;;;;2.83;2.35;;;;;;;;;;5072870;28;20818;-60
2023/05/21 00:23:20;;;;;;;3.38;2.10;;;;;;;;;;5063405;28;20084;-61
2023/05/21 00:25:47;;;;;;;3.20;2.20;;;;;;;;;;5063883;28;20463;-58
2023/05/21 00:28:13;;;;;;;2.90;2.03;;;;;;;;;;5064907;28;20137;-60
2023/05/21 00:30:41;;;;;;;4.60;2.63;;;;;;;;;;5052723;28;20139;-58
2023/05/21 00:33:12;;;;;;;3.03;2.25;;;;;;;;;;5062963;28;20084;-60
2023/05/21 00:35:39;;;;;;;2.53;2.33;;;;;;;;;;5044533;28;20046;-60
2023/05/21 00:38:06;;;;;;;2.28;2.08;;;;;;;;;;5059742;28;20180;-60
2023/05/21 00:40:33;;;;;;;6.10;2.50;;;;;;;;;;5062914;28;20095;-61
2023/05/21 00:43:00;;;;;;;3.00;2.38;;;;;;;;;;5068132;28;20898;-60
2023/05/21 00:45:26;;;;;;;2.47;1.85;;;;;;;;;;5062889;28;20540;-60
2023/05/21 00:47:55;;;;;;;3.65;2.38;;;;;;;;;;5065366;28;20143;-59
2023/05/21 00:50:22;;;;;;;2.75;1.92;;;;;;;;;;5064249;28;20052;-58
2023/05/21 00:52:48;;;;;;;3.13;2.38;;;;;;;;;;5064173;28;20572;-60
2023/05/21 00:55:15;;;;;;;3.97;2.10;;;;;;;;;;5061861;28;20059;-60
2023/05/21 00:57:41;;;;;;;2.47;2.05;;;;;;;;;;5052141;28;20055;-60
2023/05/21 01:00:11;;;;;;;4.55;2.50;;;;;;;;;;5043482;28;20123;-57
2023/05/21 01:02:37;;;;;;;2.22;2.03;;;;;;;;;;5059352;28;20200;-60
2023/05/21 01:05:05;;;;;;;3.65;2.28;;;;;;;;;;5057892;28;20080;-59
2023/05/21 01:07:33;;;;;;;3.90;2.33;;;;;;;;;;5063779;28;20057;-60
2023/05/21 01:10:01;;;;;;;2.20;2.00;;;;;;;;;;5047764;28;20061;-60
2023/05/21 01:12:28;;;;;;;3.55;2.50;;;;;;;;;;5063613;28;20104;-59
2023/05/21 01:14:56;;;;;;;4.97;2.42;;;;;;;;;;5060595;28;20061;-60
2023/05/21 01:17:23;;;;;;;6.88;2.97;;;;;;;;;;5061858;28;20075;-59
2023/05/21 01:19:51;;;;;;;3.63;2.53;;;;;;;;;;5062993;28;20107;-59
2023/05/21 01:22:19;;;;;;;5.10;2.70;;;;;;;;;;5062036;28;20493;-59
2023/05/21 01:24:48;;;;;;;4.07;2.78;;;;;;;;;;5055442;28;20045;-60
2023/05/21 01:27:15;;;;;;;2.97;2.58;;;;;;;;;;5063347;28;20522;-60
2023/05/21 01:29:41;;;;;;;3.35;2.45;;;;;;;;;;5064118;28;20103;-60
2023/05/21 01:32:17;;;;;;;2.67;2.47;;;;;;;;;;5059236;28;20056;-60
2023/05/21 01:34:54;;;;;;;3.03;2.60;;;;;;;;;;5055660;28;20115;-60
2023/05/21 01:37:23;;;;;;;5.10;2.78;;;;;;;;;;5054158;28;20049;-59
2023/05/21 01:39:53;;;;;;;4.32;3.20;;;;;;;;;;5063757;28;20052;-59
2023/05/21 01:42:21;;;;;;;3.75;3.10;;;;;;;;;;5061472;28;20841;-60
2023/05/21 01:44:49;;;;;;;3.90;2.67;;;;;;;;;;5056328;28;20049;-60
2023/05/21 01:47:16;;;;;;;4.18;2.63;;;;;;;;;;5054475;28;20057;-58
2023/05/21 01:49:43;;;;;;;4.47;3.03;;;;;;;;;;5062827;28;20136;-60
2023/05/21 01:52:11;;;;;;;2.42;2.22;;;;;;;;;;5063144;28;20057;-60
2023/05/21 01:54:38;;;;;;;4.95;2.75;;;;;;;;;;5060937;28;20049;-60
2023/05/21 01:57:04;;;;;;;4.57;2.58;;;;;;;;;;5063048;28;20115;-61
2023/05/21 01:59:30;;;;;;;5.97;3.03;;;;;;;;;;5065284;28;20064;-60
2023/05/21 02:01:57;;;;;;;3.65;2.60;;;;;;;;;;5048603;28;20111;-60
2023/05/21 02:04:23;;;;;;;3.30;2.75;;;;;;;;;;5061435;28;20451;-60
2023/05/21 02:06:50;;;;;;;2.88;2.25;;;;;;;;;;5062012;28;20144;-60
2023/05/21 02:09:17;;;;;;;2.85;2.50;;;;;;;;;;5063157;28;20053;-59
2023/05/21 02:11:43;;;;;;;5.38;2.60;;;;;;;;;;5063087;28;20053;-60
2023/05/21 02:14:12;;;;;;;4.25;2.80;;;;;;;;;;5062516;28;20057;-60
2023/05/21 02:16:40;;;;;;;3.45;2.50;;;;;;;;;;5062074;28;20049;-60
2023/05/21 02:19:09;;;;;;;4.20;2.65;;;;;;;;;;5058485;28;20110;-60
2023/05/21 02:21:35;;;;;;;3.15;2.45;;;;;;;;;;5059413;28;20080;-57
2023/05/21 02:24:02;;;;;;;3.30;2.60;;;;;;;;;;5061001;28;20107;-60
2023/05/21 02:26:28;;;;;;;3.13;2.40;;;;;;;;;;5063920;28;20053;-60
2023/05/21 02:28:54;;;;;;;5.95;2.95;;;;;;;;;;5058487;28;20143;-58
2023/05/21 02:31:21;;;;;;;4.47;2.90;;;;;;;;;;5061601;28;20111;-60
2023/05/21 02:33:47;;;;;;;3.25;2.50;;;;;;;;;;5062583;28;20713;-60
2023/05/21 02:36:14;;;;;;;5.10;3.30;;;;;;;;;;5046621;28;20124;-60
2023/05/21 02:38:44;;;;;;;2.55;2.30;;;;;;;;;;5064915;28;20148;-60
2023/05/21 02:41:10;;;;;;;4.50;2.83;;;;;;;;;;5066233;28;20057;-60
2023/05/21 02:43:36;;;;;;;4.05;2.88;;;;;;;;;;5065897;28;20152;-59
2023/05/21 02:46:03;;;;;;;3.63;2.83;;;;;;;;;;5063292;28;20076;-58
2023/05/21 02:48:30;;;;;;;3.28;2.70;;;;;;;;;;5058112;28;20544;-60
2023/05/21 02:50:57;;;;;;;3.67;2.78;;;;;;;;;;5066099;28;20057;-58
2023/05/21 02:53:23;;;;;;;5.63;3.15;;;;;;;;;;5066261;28;20053;-59
2023/05/21 02:55:50;;;;;;;3.55;2.67;;;;;;;;;;5065295;28;20132;-61
2023/05/21 02:58:16;;;;;;;3.35;3.05;;;;;;;;;;5076136;28;20076;-60
2023/05/21 03:00:42;;;;;;;4.90;2.97;;;;;;;;;;5070826;28;20060;-58
2023/05/21 03:03:10;;;;;;;3.85;2.92;;;;;;;;;;5065484;28;20057;-58
2023/05/21 03:05:37;;;;;;;3.28;2.97;;;;;;;;;;5060963;28;20053;-59
2023/05/21 03:08:03;;;;;;;6.47;3.47;;;;;;;;;;5086304;28;20059;-60
2023/05/21 03:10:30;;;;;;;3.95;3.10;;;;;;;;;;5067370;28;20084;-60
2023/05/21 03:12:56;;;;;;;4.25;2.88;;;;;;;;;;5049792;28;20115;-60
2023/05/21 03:15:23;;;;;;;3.95;3.33;;;;;;;;;;5049610;28;20152;-60
2023/05/21 03:17:49;;;;;;;4.63;3.38;;;;;;;;;;5053811;28;20049;-59
2023/05/21 03:20:17;;;;;;;8.70;3.83;;;;;;;;;;5057780;28;20444;-60
2023/05/21 03:22:44;;;;;;;6.18;2.92;;;;;;;;;;5046887;28;20053;-58
2023/05/21 03:25:11;;;;;;;4.15;3.40;;;;;;;;;;5053103;28;20102;-60
2023/05/21 03:27:38;;;;;;;4.97;3.00;;;;;;;;;;5046076;28;20065;-60
2023/05/21 03:30:04;;;;;;;4.53;3.22;;;;;;;;;;5050990;28;20049;-60
2023/05/21 03:32:36;;;;;;;4.68;3.22;;;;;;;;;;5055777;28;20499;-58
2023/05/21 03:35:03;;;;;;;8.95;3.40;;;;;;;;;;5058016;28;21123;-59
2023/05/21 03:37:30;;;;;;;4.40;3.10;;;;;;;;;;5064371;28;20136;-57
2023/05/21 03:39:56;;;;;;;5.07;3.17;;;;;;;;;;5064205;28;20053;-60
2023/05/21 03:42:23;;;;;;;6.53;2.78;;;;;;;;;;5064212;28;20067;-60
2023/05/21 03:44:49;;;;;;;4.13;3.08;;;;;;;;;;5055644;28;20053;-59
2023/05/21 03:47:16;;;;;;;5.00;2.80;;;;;;;;;;5062108;28;20106;-56
2023/05/21 03:49:42;;;;;;;3.38;2.80;;;;;;;;;;5065478;28;20135;-60
2023/05/21 03:52:08;;;;;;;5.22;3.17;;;;;;;;;;5063341;28;20061;-59
2023/05/21 03:54:34;;;;;;;3.95;2.95;;;;;;;;;;5060009;28;20060;-60
2023/05/21 03:57:01;;;;;;;4.53;2.90;;;;;;;;;;5054018;28;20143;-59
2023/05/21 03:59:27;;;;;;;3.13;2.80;;;;;;;;;;5066250;28;20230;-60
2023/05/21 04:01:54;;;;;;;3.38;2.55;;;;;;;;;;5064966;28;20175;-60
2023/05/21 04:04:20;;;;;;;4.75;2.65;;;;;;;;;;5055648;28;20057;-59
2023/05/21 04:06:47;;;;;;;3.92;2.95;;;;;;;;;;5065017;28;20053;-59
2023/05/21 04:09:13;;;;;;;4.65;3.00;;;;;;;;;;5064230;28;20057;-58
2023/05/21 04:11:39;;;;;;;3.20;2.70;;;;;;;;;;5047197;28;20057;-60
2023/05/21 04:14:06;;;;;;;5.50;2.90;;;;;;;;;;5045117;28;20111;-59
2023/05/21 04:16:34;;;;;;;5.20;2.45;;;;;;;;;;5062882;28;20137;-60
2023/05/21 04:19:00;;;;;;;3.40;2.65;;;;;;;;;;5061904;28;20049;-59
2023/05/21 04:21:27;;;;;;;6.70;3.20;;;;;;;;;;5063901;28;20053;-60
2023/05/21 04:23:56;;;;;;;2.80;2.60;;;;;;;;;;5063071;28;20076;-59
2023/05/21 04:26:24;;;;;;;3.75;2.97;;;;;;;;;;5065024;28;20057;-59
2023/05/21 04:28:50;;;;;;;6.00;3.22;;;;;;;;;;5053273;28;20054;-57
2023/05/21 04:31:16;;;;;;;3.47;2.70;;;;;;;;;;5060954;28;20049;-60
2023/05/21 04:33:44;;;;;;;4.35;2.63;;;;;;;;;;5061879;28;20053;-60
2023/05/21 04:36:11;;;;;;;3.05;2.75;;;;;;;;;;5063485;28;20477;-59
2023/05/21 04:38:38;;;;;;;6.65;3.50;;;;;;;;;;5064755;28;20056;-60
2023/05/21 04:41:06;;;;;;;4.38;3.25;;;;;;;;;;5059346;28;20152;-58
2023/05/21 04:43:32;;;;;;;6.93;3.35;;;;;;;;;;5050958;28;20056;-59
2023/05/21 04:45:58;;;;;;;3.28;2.60;;;;;;;;;;5063252;28;20481;-59
2023/05/21 04:48:28;;;;;;;3.60;2.65;;;;;;;;;;5051025;28;20146;-59
2023/05/21 04:50:55;;;;;;;4.55;2.83;;;;;;;;;;5064416;28;20538;-59
2023/05/21 04:53:22;;;;;;;5.65;3.17;;;;;;;;;;5053863;28;20505;-58
2023/05/21 04:55:49;;;;;;;3.80;2.88;;;;;;;;;;5065568;28;20053;-59
2023/05/21 04:58:17;;;;;;;4.80;3.35;;;;;;;;;;5073693;28;20082;-59
2023/05/21 05:00:45;;;;;;;6.35;3.40;;;;;;;;;;5068553;28;20139;-57
2023/05/21 05:03:12;;;;;;;3.60;3.15;;;;;;;;;;5063618;28;20052;-59
2023/05/21 05:05:38;;;;;;;4.07;3.03;;;;;;;;;;5063714;28;20506;-60
2023/05/21 05:08:05;;;;;;;3.45;3.00;;;;;;;;;;5063332;28;20061;-59
2023/05/21 05:10:32;;;;;;;4.75;2.85;;;;;;;;;;5062664;28;20077;-58
2023/05/21 05:12:58;;;;;;;5.28;2.72;;;;;;;;;;5066529;28;21199;-56
2023/05/21 05:15:25;;;;;;;3.55;2.90;;;;;;;;;;5069618;28;20049;-59
2023/05/21 05:17:51;;;;;;;4.15;3.28;;;;;;;;;;5063397;28;20057;-58
2023/05/21 05:20:18;;;;;;;4.32;3.25;;;;;;;;;;5065100;28;20131;-60
2023/05/21 05:22:44;;;;;;;5.88;3.08;;;;;;;;;;5073428;28;20115;-59
2023/05/21 05:25:10;;;;;;;5.15;2.83;;;;;;;;;;5063046;28;20611;-59
2023/05/21 05:27:37;;;;;;;3.40;2.55;;;;;;;;;;5063240;28;20549;-58
2023/05/21 05:30:04;;;;;;;4.78;3.13;;;;;;;;;;5062657;28;20052;-59
2023/05/21 05:32:30;;;;;;;5.63;2.95;;;;;;;;;;5063861;28;20088;-60
2023/05/21 05:34:57;;;;;;;6.40;3.20;;;;;;;;;;5064736;28;20133;-60
2023/05/21 05:37:25;;;;;;;6.03;2.92;;;;;;;;;;5061164;28;20601;-60
2023/05/21 05:39:51;;;;;;;3.85;3.15;;;;;;;;;;5064437;28;20080;-59
2023/05/21 05:42:18;;;;;;;7.50;3.00;;;;;;;;;;5063216;28;20061;-59
2023/05/21 05:44:44;;;;;;;6.97;3.30;;;;;;;;;;5062779;28;20414;-58
2023/05/21 05:47:10;;;;;;;3.30;2.75;;;;;;;;;;5063386;28;20063;-60
2023/05/21 05:49:37;;;;;;;4.55;3.33;;;;;;;;;;5064070;28;20056;-59
2023/05/21 05:52:03;;;;;;;4.30;3.42;;;;;;;;;;5063262;28;20056;-60
2023/05/21 05:54:30;;;;;;;4.10;3.17;;;;;;;;;;5063562;28;20676;-60
2023/05/21 05:56:56;;;;;;;4.22;3.35;;;;;;;;;;5062951;28;20513;-60
2023/05/21 05:59:22;;;;;;;5.53;3.60;;;;;;;;;;5061798;28;20150;-60
2023/05/21 06:01:49;;;;;;;4.85;3.35;;;;;;;;;;5063234;28;20048;-60
2023/05/21 06:04:15;;;;;;;4.15;3.05;;;;;;;;;;5065243;28;20049;-60
2023/05/21 06:06:42;;;;;;;4.13;3.35;;;;;;;;;;5066880;28;20478;-60
2023/05/21 06:09:08;;;;;;;3.92;3.28;;;;;;;;;;5048549;28;20168;-60
2023/05/21 06:11:35;;;;;;;6.60;3.78;;;;;;;;;;5080570;28;20060;-60
2023/05/21 06:14:01;;;;;;;4.25;3.80;;;;;;;;;;5064542;28;20107;-60
2023/05/21 06:16:30;;;;;;;7.22;4.20;;;;;;;;;;5066732;28;20510;-59
2023/05/21 06:18:56;;;;;;;4.85;3.63;;;;;;;;;;5067159;28;20056;-60
2023/05/21 06:21:23;;;;;;;5.35;4.18;;;;;;;;;;5067324;28;20049;-59
2023/05/21 06:23:49;;;;;;;3.50;2.90;;;;;;;;;;5067048;28;20069;-60
2023/05/21 06:26:18;;;;;;;4.60;3.75;;;;;;;;;;5065226;28;20060;-60
2023/05/21 06:28:44;;;;;;;4.63;3.67;;;;;;;;;;5064605;28;20060;-60
2023/05/21 06:31:10;;;;;;;6.30;3.40;;;;;;;;;;5062943;28;20049;-59
2023/05/21 06:33:37;;;;;;;5.88;3.55;;;;;;;;;;5065019;28;20088;-59
2023/05/21 06:36:03;;;;;;;4.57;3.95;;;;;;;;;;5060611;28;20063;-58
2023/05/21 06:38:30;;;;;;;8.40;4.47;;;;;;;;;;5067569;28;20087;-60
2023/05/21 06:40:57;;;;;;;7.93;4.15;;;;;;;;;;5065314;28;20467;-57
2023/05/21 06:43:23;;;;;;;6.55;3.90;;;;;;;;;;5063352;28;20091;-57
2023/05/21 06:45:50;;;;;;;7.78;4.28;;;;;;;;;;5079351;28;20054;-61
2023/05/21 06:48:16;;;;;;;4.68;3.72;;;;;;;;;;5048316;28;20513;-55
2023/05/21 06:50:43;;;;;;;5.20;3.80;;;;;;;;;;5058552;28;20128;-59
2023/05/21 06:53:09;;;;;;;6.47;3.47;;;;;;;;;;5064577;28;20087;-59
2023/05/21 06:55:36;;;;;;;4.32;3.63;;;;;;;;;;5049271;28;20046;-59
2023/05/21 06:58:02;;;;;;;5.55;3.45;;;;;;;;;;5066201;28;20064;-59
2023/05/21 07:00:29;;;;;;;3.97;3.30;;;;;;;;;;5061608;28;20127;-57
2023/05/21 07:02:55;;;;;;;5.05;3.30;;;;;;;;;;5059303;28;20105;-60
2023/05/21 07:05:22;;;;;;;6.85;4.45;;;;;;;;;;5062881;28;20068;-59
2023/05/21 07:07:48;;;;;;;6.68;3.90;;;;;;;;;;5060595;28;20050;-58
2023/05/21 07:10:15;;;;;;;4.50;3.67;;;;;;;;;;5056069;28;20640;-58
2023/05/21 07:12:41;;;;;;;5.05;4.10;;;;;;;;;;5064053;28;20056;-59
2023/05/21 07:15:08;;;;;;;4.30;3.22;;;;;;;;;;5065117;28;20519;-58
2023/05/21 07:17:34;;;;;;;5.35;3.70;;;;;;;;;;5066114;28;20052;-58
2023/05/21 07:20:01;;;;;;;4.35;3.50;;;;;;;;;;5065059;28;20053;-59
2023/05/21 07:22:27;;;;;;;4.75;3.72;;;;;;;;;;5065924;28;20060;-55
2023/05/21 07:24:54;;;;;;;7.72;3.97;;;;;;;;;;5065404;28;20053;-59
2023/05/21 07:27:20;;;;;;;4.05;3.25;;;;;;;;;;5063072;28;20529;-58
2023/05/21 07:29:51;;;;;;;3.95;3.20;;;;;;;;;;5065828;28;20110;-60
2023/05/21 07:32:17;;;;;;;5.30;3.85;;;;;;;;;;5050841;28;20053;-59
2023/05/21 07:34:44;;;;;;;4.38;3.80;;;;;;;;;;5063865;28;20139;-59
2023/05/21 07:37:10;;;;;;;10.18;4.38;;;;;;;;;;5065269;28;20499;-59
2023/05/21 07:39:36;;;;;;;4.57;3.60;;;;;;;;;;5064604;28;20144;-59
2023/05/21 07:42:03;;;;;;;5.00;3.35;;;;;;;;;;5057781;28;20061;-58
2023/05/21 07:44:30;;;;;;;6.00;4.13;;;;;;;;;;5063736;28;20053;-59
2023/05/21 07:46:57;;;;;;;5.40;3.35;;;;;;;;;;5054040;28;20099;-57
2023/05/21 07:49:23;;;;;;;6.95;3.90;;;;;;;;;;5061072;28;20164;-60
2023/05/21 07:51:49;;;;;;;4.82;4.05;;;;;;;;;;5063299;28;20080;-57
2023/05/21 07:54:16;;;;;;;6.65;4.28;;;;;;;;;;5051537;28;20552;-59
2023/05/21 07:56:42;;;;;;;5.70;4.05;;;;;;;;;;5058108;28;20054;-58
2023/05/21 07:59:09;;;;;;;3.88;3.13;;;;;;;;;;5062189;28;20065;-60
2023/05/21 08:01:39;;;;;;;6.00;3.60;;;;;;;;;;5054569;28;20053;-60
2023/05/21 08:04:06;;;;;;;9.70;4.32;;;;;;;;;;5045453;28;20081;-57
2023/05/21 08:06:33;;;;;;;6.57;4.32;;;;;;;;;;5069329;28;20060;-57
2023/05/21 08:09:00;;;;;;;5.25;4.63;;;;;;;;;;5058493;28;20080;-58
2023/05/21 08:11:27;;;;;;;6.32;3.60;;;;;;;;;;5054254;28;20056;-59
2023/05/21 08:13:53;;;;;;;6.82;3.92;;;;;;;;;;5058463;28;20909;-60
2023/05/21 08:16:21;;;;;;;5.18;3.65;;;;;;;;;;5061266;28;20057;-58
2023/05/21 08:18:48;;;;;;;5.47;3.75;;;;;;;;;;5061091;28;20100;-57
2023/05/21 08:21:15;;;;;;;6.57;3.92;;;;;;;;;;5062712;28;20045;-59
2023/05/21 08:23:41;;;;;;;5.15;3.90;;;;;;;;;;5052397;28;20768;-60
2023/05/21 08:26:07;;;;;;;4.07;3.67;;;;;;;;;;5064891;28;20061;-59
2023/05/21 08:28:36;;;;;;;6.75;4.15;;;;;;;;;;5056921;28;20489;-58
2023/05/21 08:31:03;;;;;;;5.00;3.90;;;;;;;;;;5063963;28;20137;-59
2023/05/21 08:33:29;;;;;;;5.50;4.03;;;;;;;;;;5062971;28;20056;-59
2023/05/21 08:35:55;;;;;;;4.53;3.45;;;;;;;;;;5057767;28;20057;-59
2023/05/21 08:38:22;;;;;;;6.53;4.38;;;;;;;;;;5064262;28;20055;-59
2023/05/21 08:40:50;;;;;;;4.47;3.63;;;;;;;;;;5060523;28;20057;-59
2023/05/21 08:43:16;;;;;;;4.82;3.63;;;;;;;;;;5054826;28;20111;-60
2023/05/21 08:46:02;;;;;;;4.97;3.60;;;;;;;;;;5048851;28;20058;-60
2023/05/21 08:48:30;;;;;;;4.95;3.65;;;;;;;;;;5054673;28;20092;-60
2023/05/21 08:50:57;;;;;;;5.40;3.97;;;;;;;;;;5051567;28;20091;-59
2023/05/21 08:53:24;;;;;;;5.85;3.72;;;;;;;;;;5057909;28;20049;-60
2023/05/21 08:55:54;;;;;;;5.07;3.50;;;;;;;;;;5058119;28;20060;-59
2023/05/21 08:58:21;;;;;;;6.20;3.95;;;;;;;;;;5051565;28;20081;-60
2023/05/21 09:00:47;;;;;;;4.10;3.40;;;;;;;;;;5048152;28;20529;-60
2023/05/21 09:03:14;;;;;;;4.25;3.75;;;;;;;;;;5054800;28;20135;-57
2023/05/21 09:05:41;;;;;;;5.57;3.83;;;;;;;;;;5054248;28;20057;-58
2023/05/21 09:08:11;;;;;;;6.47;3.72;;;;;;;;;;5062174;28;20471;-58
2023/05/21 09:10:38;;;;;;;4.05;3.55;;;;;;;;;;5049190;28;20099;-59
2023/05/21 09:13:06;;;;;;;4.75;3.60;;;;;;;;;;5064403;28;20059;-54
2023/05/21 09:15:33;;;;;;;6.68;3.70;;;;;;;;;;5063475;28;20137;-56
2023/05/21 09:18:00;;;;;;;5.78;3.97;;;;;;;;;;5058752;28;20053;-53
2023/05/21 09:20:27;;;;;;;5.63;3.70;;;;;;;;;;5058830;28;20549;-59
2023/05/21 09:22:54;;;;;;;4.72;4.05;;;;;;;;;;5060284;28;20180;-56
2023/05/21 09:25:22;;;;;;;6.57;4.40;;;;;;;;;;5062533;28;20060;-59
2023/05/21 09:27:48;;;;;;;4.53;3.20;;;;;;;;;;5059809;28;20081;-59
2023/05/21 09:30:16;;;;;;;5.20;4.10;;;;;;;;;;5045687;28;20057;-57
2023/05/21 09:32:43;;;;;;;4.63;3.45;;;;;;;;;;5062089;28;21114;-58
2023/05/21 09:35:11;;;;;;;5.63;3.53;;;;;;;;;;5066025;28;20053;-58
2023/05/21 09:37:38;;;;;;;4.55;3.83;;;;;;;;;;5062936;28;20060;-59
2023/05/21 09:40:22;;;;;;;5.13;3.72;;;;;;;;;;5063043;28;20049;-57
2023/05/21 09:42:53;;;;;;;6.00;3.15;;;;;;;;;;5057937;28;20057;-60
2023/05/21 09:45:20;;;;;;;5.20;3.90;;;;;;;;;;5056896;28;20049;-59
2023/05/21 09:47:47;;;;;;;7.88;4.03;;;;;;;;;;5063299;28;20084;-60
2023/05/21 09:50:17;;;;;;;4.68;4.15;;;;;;;;;;5062695;28;20346;-58
2023/05/21 09:52:44;;;;;;;4.75;3.70;;;;;;;;;;5061983;28;20053;-60
2023/05/21 09:55:11;;;;;;;5.80;3.50;;;;;;;;;;5060579;28;20092;-58
2023/05/21 09:57:41;;;;;;;4.95;3.35;;;;;;;;;;5053978;28;20611;-61
2023/05/21 10:00:10;;;;;;;4.72;4.00;;;;;;;;;;5061143;28;20104;-60
2023/05/21 10:02:38;;;;;;;4.22;3.72;;;;;;;;;;5061312;28;20946;-60
2023/05/21 10:05:07;;;;;;;4.43;3.50;;;;;;;;;;5061079;28;20053;-62
2023/05/21 10:07:34;;;;;;;5.28;3.45;;;;;;;;;;5057408;28;20053;-59
2023/05/21 10:10:02;;;;;;;6.72;3.60;;;;;;;;;;5054791;28;20144;-60
2023/05/21 10:12:29;;;;;;;5.22;3.80;;;;;;;;;;5051643;28;21745;-60
2023/05/21 10:15:00;;;;;;;5.03;3.58;;;;;;;;;;5064617;28;20057;-61
2023/05/21 10:17:27;;;;;;;5.00;3.70;;;;;;;;;;5063705;28;20463;-61
2023/05/21 10:19:54;;;;;;;3.90;3.50;;;;;;;;;;5062618;28;20507;-61
2023/05/21 10:22:24;;;;;;;6.00;3.78;;;;;;;;;;5062774;28;20142;-61
2023/05/21 10:24:51;;;;;;;4.38;3.75;;;;;;;;;;5063752;28;20049;-60
2023/05/21 10:27:18;;;;;;;5.97;3.78;;;;;;;;;;5060572;28;20045;-60
2023/05/21 10:29:45;;;;;;;3.83;2.85;;;;;;;;;;5053881;28;20055;-61
2023/05/21 10:32:13;;;;;;;4.15;3.75;;;;;;;;;;5069743;28;20056;-61
2023/05/21 10:34:41;;;;;;;5.43;3.92;;;;;;;;;;5061348;28;20053;-62
2023/05/21 10:37:08;;;;;;;5.47;3.72;;;;;;;;;;5056001;28;20057;-61
2023/05/21 10:39:36;;;;;;;3.45;3.03;;;;;;;;;;5063045;28;20052;-61
2023/05/21 10:42:23;;;;;;;5.55;3.63;;;;;;;;;;5061150;28;20088;-34
2023/05/21 10:44:52;;;;;;;6.03;3.53;;;;;;;;;;5064416;28;20053;-34
2023/05/21 10:47:20;;;;;;;4.60;3.97;;;;;;;;;;5083430;28;20049;-61
2023/05/21 10:49:58;;;;;;;4.47;3.38;;;;;;;;;;5082695;28;20063;-61
2023/05/21 10:52:50;;;;;;;4.32;3.72;;;;;;;;;;5072599;28;20052;-60
2023/05/21 10:55:26;;;;;;;4.35;3.67;;;;;;;;;;5032831;28;20124;-61
2023/05/21 10:58:14;;;;;;;4.15;3.75;;;;;;;;;;5067582;28;20064;-61
2023/05/21 11:00:42;;;;;;;4.82;3.85;;;;;;;;;;5065729;28;20094;-60
2023/05/21 11:03:11;;;;;;;6.60;3.78;;;;;;;;;;5059178;28;20111;-60
2023/05/21 11:05:49;;;;;;;4.47;3.70;;;;;;;;;;5045660;28;20486;-62
2023/05/21 11:08:30;;;;;;;4.97;4.10;;;;;;;;;;5060481;28;20053;-61
2023/05/21 11:10:57;;;;;;;6.05;4.60;;;;;;;;;;5062062;28;20111;-62
2023/05/21 11:13:25;;;;;;;5.20;4.00;;;;;;;;;;5065883;28;20076;-59
2023/05/21 11:15:57;;;;;;;4.65;3.83;;;;;;;;;;5065988;28;20123;-59
2023/05/21 11:18:36;;;;;;;4.40;4.00;;;;;;;;;;5065915;28;20504;-58
2023/05/21 11:21:07;;;;;;;5.63;4.35;;;;;;;;;;5064287;28;20536;-60
2023/05/21 11:23:52;;;;;;;5.22;4.10;;;;;;;;;;5064480;28;20057;-59
2023/05/21 11:26:20;;;;;;;6.10;4.18;;;;;;;;;;5065214;28;20234;-60
2023/05/21 11:28:50;;;;;;;5.22;4.20;;;;;;;;;;5065544;28;20053;-59
2023/05/21 11:31:26;;;;;;;6.03;4.30;;;;;;;;;;5065172;28;22362;-59
2023/05/21 11:34:12;;;;;;;6.10;5.10;;;;;;;;;;5065416;28;20053;-60
2023/05/21 11:36:40;;;;;;;5.18;4.68;;;;;;;;;;5064873;28;20045;-59
2023/05/21 11:39:08;;;;;;;5.70;4.25;;;;;;;;;;5066232;28;20053;-60
2023/05/21 11:41:50;;;;;;;5.50;4.30;;;;;;;;;;5066711;28;20123;-60
2023/05/21 11:44:17;;;;;;;4.93;4.38;;;;;;;;;;5065114;28;20101;-61
2023/05/21 11:46:43;;;;;;;4.82;4.10;;;;;;;;;;5066902;28;20049;-60
2023/05/21 11:49:10;;;;;;;6.13;4.78;;;;;;;;;;5066451;28;20037;-60
2023/05/21 11:51:38;;;;;;;7.75;5.10;;;;;;;;;;5066453;28;20056;-60
2023/05/21 11:54:07;;;;;;;6.25;4.72;;;;;;;;;;5063554;28;20134;-60
2023/05/21 11:56:35;;;;;;;6.25;5.22;;;;;;;;;;5065840;28;20045;-59
2023/05/21 11:59:01;;;;;;;6.47;4.72;;;;;;;;;;5062310;28;20057;-60
2023/05/21 12:01:29;;;;;;;4.70;4.30;;;;;;;;;;5061170;28;20053;-59
2023/05/21 12:03:56;;;;;;;6.97;4.50;;;;;;;;;;5065359;28;20095;-61
2023/05/21 12:06:25;;;;;;;5.28;4.32;;;;;;;;;;5063167;28;20412;-60
2023/05/21 12:08:56;;;;;;;6.30;4.68;;;;;;;;;;5064340;28;20149;-63
2023/05/21 12:11:23;;;;;;;5.38;4.68;;;;;;;;;;5064740;28;20055;-63
2023/05/21 12:13:50;;;;;;;8.63;4.65;;;;;;;;;;5064303;28;20063;-63
2023/05/21 12:16:16;;;;;;;4.97;4.45;;;;;;;;;;5063725;28;20131;-63
2023/05/21 12:18:43;;;;;;;4.88;4.40;;;;;;;;;;5064429;28;20044;-63
2023/05/21 12:21:09;;;;;;;5.30;4.63;;;;;;;;;;5064215;28;20053;-62
2023/05/21 12:23:37;;;;;;;5.60;3.95;;;;;;;;;;5064563;28;20057;-63
2023/05/21 12:26:04;;;;;;;5.05;3.78;;;;;;;;;;5064059;28;20107;-63
2023/05/21 12:28:30;;;;;;;6.88;4.60;;;;;;;;;;5067604;28;20076;-63
2023/05/21 12:30:57;;;;;;;4.82;4.32;;;;;;;;;;5063963;28;20057;-63
2023/05/21 12:33:24;;;;;;;6.70;5.75;;;;;;;;;;5063907;28;20084;-63
2023/05/21 12:35:51;;;;;;;7.55;5.00;;;;;;;;;;5063069;28;20136;-63
2023/05/21 12:38:17;;;;;;;6.15;5.07;;;;;;;;;;5066185;28;20061;-63
2023/05/21 12:40:44;;;;;;;6.50;5.15;;;;;;;;;;5064200;28;20063;-63
2023/05/21 12:43:11;;;;;;;7.88;4.80;;;;;;;;;;5064421;28;20084;-63
2023/05/21 12:45:40;;;;;;;8.57;5.50;;;;;;;;;;5069010;28;20114;-63
2023/05/21 12:48:07;;;;;;;6.00;5.28;;;;;;;;;;5065111;28;20099;-63
2023/05/21 12:50:34;;;;;;;6.50;5.28;;;;;;;;;;5059376;28;20382;-63
2023/05/21 12:53:01;;;;;;;9.38;4.97;;;;;;;;;;5052213;28;20061;-63
2023/05/21 12:55:29;;;;;;;6.47;4.47;;;;;;;;;;5064603;28;20592;-63
2023/05/21 12:58:00;;;;;;;5.28;4.75;;;;;;;;;;5062904;28;20662;-61
2023/05/21 13:00:27;;;;;;;8.38;5.78;;;;;;;;;;5063820;28;20140;-61
2023/05/21 13:02:55;;;;;;;5.68;5.03;;;;;;;;;;5063627;28;20048;-61
2023/05/21 13:05:21;;;;;;;6.57;5.38;;;;;;;;;;5064306;28;20599;-60
2023/05/21 13:07:50;;;;;;;5.82;4.90;;;;;;;;;;5064104;28;20099;-58
2023/05/21 13:10:16;;;;;;;8.05;5.18;;;;;;;;;;5064190;28;20106;-60
2023/05/21 13:12:44;;;;;;;6.35;4.70;;;;;;;;;;5064087;28;20080;-62
2023/05/21 13:15:10;;;;;;;7.18;5.80;;;;;;;;;;5063236;28;20080;-62
2023/05/21 13:17:36;;;;;;;3.63;3.10;;;;;;;;;;5063024;28;20110;-60
2023/05/21 13:20:10;;;;;;;3.22;2.92;;;;;;;;;;5063885;28;20059;-60
2023/05/21 13:22:41;;;;;;;4.78;3.47;;;;;;;;;;5064015;28;20049;-60
2023/05/21 13:25:08;;;;;;;4.05;3.03;;;;;;;;;;5063560;28;20577;-60
2023/05/21 13:27:34;;;;;;;4.78;3.85;;;;;;;;;;5063514;28;20154;-64
2023/05/21 13:30:01;;;;;;;3.90;3.17;;;;;;;;;;5061802;28;20578;-63
2023/05/21 13:32:27;;;;;;;3.92;3.53;;;;;;;;;;5064400;28;20494;-63
2023/05/21 13:34:53;;;;;;;6.20;2.72;;;;;;;;;;5063290;28;20049;-64
2023/05/21 13:37:20;;;;;;;5.30;3.40;;;;;;;;;;5063848;28;20052;-64
2023/05/21 13:39:46;;;;;;;7.20;3.72;;;;;;;;;;5063421;28;20590;-64
2023/05/21 13:42:12;;;;;;;6.85;3.40;;;;;;;;;;5063307;28;20053;-64
2023/05/21 13:44:39;;;;;;;5.07;3.47;;;;;;;;;;5063643;28;20577;-63
2023/05/21 13:47:06;;;;;;;3.83;2.40;;;;;;;;;;5062856;28;20063;-64
2023/05/21 13:49:32;;;;;;;4.32;3.03;;;;;;;;;;5063665;28;20053;-63
2023/05/21 13:51:59;;;;;;;5.47;4.05;;;;;;;;;;5061854;28;20560;-63
2023/05/21 13:54:26;;;;;;;6.60;3.30;;;;;;;;;;5063010;28;20601;-63
2023/05/21 13:56:53;;;;;;;6.45;4.00;;;;;;;;;;5063257;28;20486;-63
2023/05/21 13:59:19;;;;;;;5.90;3.28;;;;;;;;;;5063805;28;20146;-63
2023/05/21 14:01:46;;;;;;;4.97;3.03;;;;;;;;;;5063470;28;20103;-63
2023/05/21 14:04:13;;;;;;;6.28;3.63;;;;;;;;;;5063135;28;20064;-63
2023/05/21 14:06:40;;;;;;;5.18;3.22;;;;;;;;;;5063677;28;20127;-63
2023/05/21 14:09:06;;;;;;;3.90;3.13;;;;;;;;;;5063235;28;20058;-63
2023/05/21 14:11:33;;;;;;;3.00;2.70;;;;;;;;;;5063113;28;20057;-63
2023/05/21 14:13:59;;;;;;;3.50;2.70;;;;;;;;;;5063359;28;20061;-63
2023/05/21 14:16:28;;;;;;;3.00;2.70;;;;;;;;;;5062954;28;20142;-63
2023/05/21 14:18:57;;;;;;;5.40;2.95;;;;;;;;;;5063728;28;20083;-63
2023/05/21 14:21:24;;;;;;;3.45;2.72;;;;;;;;;;5063218;28;20136;-60
2023/05/21 14:23:51;;;;;;;4.50;2.60;;;;;;;;;;5063307;28;20049;-63
2023/05/21 14:26:17;;;;;;;3.95;2.47;;;;;;;;;;5061480;28;20053;-63
2023/05/21 14:28:44;;;;;;;4.25;2.92;;;;;;;;;;5063307;28;20569;-63
2023/05/21 14:31:10;;;;;;;7.38;4.15;;;;;;;;;;5065586;28;20465;-63
2023/05/21 14:33:37;;;;;;;6.07;3.10;;;;;;;;;;5066768;28;20114;-63
2023/05/21 14:36:04;;;;;;;6.22;3.60;;;;;;;;;;5066485;28;20132;-63
2023/05/21 14:38:30;;;;;;;4.88;3.30;;;;;;;;;;5064694;28;20056;-62
2023/05/21 14:40:56;;;;;;;3.25;2.67;;;;;;;;;;5064445;28;20406;-62
2023/05/21 14:43:23;;;;;;;3.85;2.70;;;;;;;;;;5066588;28;20061;-62
2023/05/21 14:45:49;;;;;;;4.03;3.05;;;;;;;;;;5066367;28;20057;-62